sensor_id;sensor_type;location;lat;lon;timestamp;temperature;humidity
14733;DHT22;7457;50.960;6.830;2023-07-31T00:00:28;16.10;98.90
14733;DHT22;7457;50.960;6.830;2023-07-31T00:02:54;16.10;98.80
14733;DHT22;7457;50.960;6.830;2023-07-31T00:05:20;16.20;98.60
14733;DHT22;7457;50.960;6.830;2023-07-31T00:07:46;16.20;98.50
14733;DHT22;7457;50.960;6.830;2023-07-31T00:10:12;16.20;98.40
14733;DHT22;7457;50.960;6.830;2023-07-31T00:12:42;16.20;98.20
14733;DHT22;7457;50.960;6.830;2023-07-31T00:15:09;16.20;98.10
14733;DHT22;7457;50.960;6.830;2023-07-31T00:17:35;16.20;98.00
14733;DHT22;7457;50.960;6.830;2023-07-31T00:20:01;16.20;98.10
14733;DHT22;7457;50.960;6.830;2023-07-31T00:22:26;16.20;98.10
14733;DHT22;7457;50.960;6.830;2023-07-31T00:24:52;16.20;98.10
14733;DHT22;7457;50.960;6.830;2023-07-31T00:27:18;16.20;98.10
14733;DHT22;7457;50.960;6.830;2023-07-31T00:29:43;16.20;98.10
14733;DHT22;7457;50.960;6.830;2023-07-31T00:32:09;16.20;98.10
14733;DHT22;7457;50.960;6.830;2023-07-31T00:34:34;16.20;98.00
14733;DHT22;7457;50.960;6.830;2023-07-31T00:37:00;16.20;98.10
14733;DHT22;7457;50.960;6.830;2023-07-31T00:39:26;16.20;98.00
14733;DHT22;7457;50.960;6.830;2023-07-31T00:41:51;16.30;97.90
14733;DHT22;7457;50.960;6.830;2023-07-31T00:44:17;16.30;97.80
14733;DHT22;7457;50.960;6.830;2023-07-31T00:46:42;16.30;97.80
14733;DHT22;7457;50.960;6.830;2023-07-31T00:49:08;16.30;97.50
14733;DHT22;7457;50.960;6.830;2023-07-31T00:51:34;16.30;97.40
14733;DHT22;7457;50.960;6.830;2023-07-31T00:54:00;16.30;97.20
14733;DHT22;7457;50.960;6.830;2023-07-31T00:56:27;16.40;97.00
14733;DHT22;7457;50.960;6.830;2023-07-31T00:58:54;16.40;96.90
14733;DHT22;7457;50.960;6.830;2023-07-31T01:01:20;16.40;96.60
14733;DHT22;7457;50.960;6.830;2023-07-31T01:03:46;16.40;96.40
14733;DHT22;7457;50.960;6.830;2023-07-31T01:09:42;16.50;95.90
14733;DHT22;7457;50.960;6.830;2023-07-31T01:12:14;16.50;95.60
14733;DHT22;7457;50.960;6.830;2023-07-31T01:14:40;16.50;95.50
14733;DHT22;7457;50.960;6.830;2023-07-31T01:17:05;16.40;95.30
14733;DHT22;7457;50.960;6.830;2023-07-31T01:19:31;16.40;95.30
14733;DHT22;7457;50.960;6.830;2023-07-31T01:28:09;16.50;94.90
14733;DHT22;7457;50.960;6.830;2023-07-31T01:30:43;16.40;94.80
14733;DHT22;7457;50.960;6.830;2023-07-31T01:33:10;16.40;94.70
14733;DHT22;7457;50.960;6.830;2023-07-31T01:35:36;16.40;94.60
14733;DHT22;7457;50.960;6.830;2023-07-31T01:38:02;16.40;94.40
14733;DHT22;7457;50.960;6.830;2023-07-31T01:40:28;16.50;94.30
14733;DHT22;7457;50.960;6.830;2023-07-31T01:42:54;16.40;94.20
14733;DHT22;7457;50.960;6.830;2023-07-31T01:45:20;16.50;94.00
14733;DHT22;7457;50.960;6.830;2023-07-31T01:47:45;16.40;94.00
14733;DHT22;7457;50.960;6.830;2023-07-31T01:50:11;16.50;93.90
14733;DHT22;7457;50.960;6.830;2023-07-31T01:52:37;16.50;93.90
14733;DHT22;7457;50.960;6.830;2023-07-31T01:55:02;16.50;94.00
14733;DHT22;7457;50.960;6.830;2023-07-31T01:57:28;16.50;93.90
14733;DHT22;7457;50.960;6.830;2023-07-31T01:59:54;16.50;93.90
14733;DHT22;7457;50.960;6.830;2023-07-31T02:02:20;16.60;93.80
14733;DHT22;7457;50.960;6.830;2023-07-31T02:04:46;16.60;93.90
14733;DHT22;7457;50.960;6.830;2023-07-31T02:07:12;16.60;93.80
14733;DHT22;7457;50.960;6.830;2023-07-31T02:09:38;16.60;93.80
14733;DHT22;7457;50.960;6.830;2023-07-31T02:12:03;16.60;93.70
14733;DHT22;7457;50.960;6.830;2023-07-31T02:14:29;16.70;93.70
14733;DHT22;7457;50.960;6.830;2023-07-31T02:16:55;16.70;93.70
14733;DHT22;7457;50.960;6.830;2023-07-31T02:19:20;16.70;93.60
14733;DHT22;7457;50.960;6.830;2023-07-31T02:21:46;16.70;93.60
14733;DHT22;7457;50.960;6.830;2023-07-31T02:24:11;16.70;93.60
14733;DHT22;7457;50.960;6.830;2023-07-31T02:26:37;16.70;93.70
14733;DHT22;7457;50.960;6.830;2023-07-31T02:29:03;16.70;93.70
14733;DHT22;7457;50.960;6.830;2023-07-31T02:31:28;16.70;93.60
14733;DHT22;7457;50.960;6.830;2023-07-31T02:33:54;16.70;93.50
14733;DHT22;7457;50.960;6.830;2023-07-31T02:36:20;16.70;93.50
14733;DHT22;7457;50.960;6.830;2023-07-31T02:38:45;16.70;93.50
14733;DHT22;7457;50.960;6.830;2023-07-31T02:41:11;16.70;93.50
14733;DHT22;7457;50.960;6.830;2023-07-31T02:43:36;16.70;93.40
14733;DHT22;7457;50.960;6.830;2023-07-31T02:46:02;16.70;93.40
14733;DHT22;7457;50.960;6.830;2023-07-31T02:48:28;16.70;93.40
14733;DHT22;7457;50.960;6.830;2023-07-31T02:50:53;16.70;93.30
14733;DHT22;7457;50.960;6.830;2023-07-31T02:53:19;16.70;93.30
14733;DHT22;7457;50.960;6.830;2023-07-31T02:55:45;16.70;93.30
14733;DHT22;7457;50.960;6.830;2023-07-31T02:58:10;16.70;93.20
14733;DHT22;7457;50.960;6.830;2023-07-31T03:00:36;16.70;93.10
14733;DHT22;7457;50.960;6.830;2023-07-31T03:03:06;16.80;93.10
14733;DHT22;7457;50.960;6.830;2023-07-31T03:05:32;16.80;92.90
14733;DHT22;7457;50.960;6.830;2023-07-31T03:07:58;16.80;92.90
14733;DHT22;7457;50.960;6.830;2023-07-31T03:10:23;16.80;92.90
14733;DHT22;7457;50.960;6.830;2023-07-31T03:12:49;16.80;92.80
14733;DHT22;7457;50.960;6.830;2023-07-31T03:15:14;16.80;92.70
14733;DHT22;7457;50.960;6.830;2023-07-31T03:17:40;16.80;92.70
14733;DHT22;7457;50.960;6.830;2023-07-31T03:20:06;16.80;92.70
14733;DHT22;7457;50.960;6.830;2023-07-31T03:22:32;16.80;92.60
14733;DHT22;7457;50.960;6.830;2023-07-31T03:24:57;16.80;92.60
14733;DHT22;7457;50.960;6.830;2023-07-31T03:27:23;16.80;92.60
14733;DHT22;7457;50.960;6.830;2023-07-31T03:29:49;16.80;92.60
14733;DHT22;7457;50.960;6.830;2023-07-31T03:32:16;16.80;92.50
14733;DHT22;7457;50.960;6.830;2023-07-31T03:34:42;16.80;92.50
14733;DHT22;7457;50.960;6.830;2023-07-31T03:37:07;16.90;92.50
14733;DHT22;7457;50.960;6.830;2023-07-31T03:39:35;16.80;92.60
14733;DHT22;7457;50.960;6.830;2023-07-31T03:42:00;16.80;92.70
14733;DHT22;7457;50.960;6.830;2023-07-31T03:44:26;16.70;93.10
14733;DHT22;7457;50.960;6.830;2023-07-31T03:46:52;16.60;93.30
14733;DHT22;7457;50.960;6.830;2023-07-31T03:49:17;16.60;93.80
14733;DHT22;7457;50.960;6.830;2023-07-31T03:51:43;16.50;94.10
14733;DHT22;7457;50.960;6.830;2023-07-31T03:54:10;16.50;94.10
14733;DHT22;7457;50.960;6.830;2023-07-31T03:56:35;16.60;94.10
14733;DHT22;7457;50.960;6.830;2023-07-31T03:59:01;16.60;94.10
14733;DHT22;7457;50.960;6.830;2023-07-31T04:01:26;16.60;94.10
14733;DHT22;7457;50.960;6.830;2023-07-31T04:03:52;16.60;94.10
14733;DHT22;7457;50.960;6.830;2023-07-31T04:06:18;16.70;94.10
14733;DHT22;7457;50.960;6.830;2023-07-31T04:08:44;16.60;94.20
14733;DHT22;7457;50.960;6.830;2023-07-31T04:11:10;16.60;94.30
14733;DHT22;7457;50.960;6.830;2023-07-31T04:13:37;16.60;94.30
14733;DHT22;7457;50.960;6.830;2023-07-31T04:16:03;16.60;94.50
14733;DHT22;7457;50.960;6.830;2023-07-31T04:18:28;16.50;94.70
14733;DHT22;7457;50.960;6.830;2023-07-31T04:20:56;16.50;94.80
14733;DHT22;7457;50.960;6.830;2023-07-31T04:23:24;16.50;95.00
14733;DHT22;7457;50.960;6.830;2023-07-31T04:25:49;16.50;95.10
14733;DHT22;7457;50.960;6.830;2023-07-31T04:28:15;16.60;95.10
14733;DHT22;7457;50.960;6.830;2023-07-31T04:30:41;16.60;95.20
14733;DHT22;7457;50.960;6.830;2023-07-31T04:33:06;16.60;95.10
14733;DHT22;7457;50.960;6.830;2023-07-31T04:35:32;16.60;95.10
14733;DHT22;7457;50.960;6.830;2023-07-31T04:37:57;16.60;95.10
14733;DHT22;7457;50.960;6.830;2023-07-31T04:40:24;16.60;95.10
14733;DHT22;7457;50.960;6.830;2023-07-31T04:42:50;16.60;95.20
14733;DHT22;7457;50.960;6.830;2023-07-31T04:45:15;16.70;95.20
14733;DHT22;7457;50.960;6.830;2023-07-31T04:47:41;16.70;95.30
14733;DHT22;7457;50.960;6.830;2023-07-31T04:50:07;16.80;95.20
14733;DHT22;7457;50.960;6.830;2023-07-31T04:52:33;16.80;95.00
14733;DHT22;7457;50.960;6.830;2023-07-31T04:54:58;16.90;95.00
14733;DHT22;7457;50.960;6.830;2023-07-31T04:57:24;16.90;95.00
14733;DHT22;7457;50.960;6.830;2023-07-31T04:59:49;17.00;94.80
14733;DHT22;7457;50.960;6.830;2023-07-31T05:02:15;17.00;94.50
14733;DHT22;7457;50.960;6.830;2023-07-31T05:04:41;17.10;94.10
14733;DHT22;7457;50.960;6.830;2023-07-31T05:07:06;17.20;94.00
14733;DHT22;7457;50.960;6.830;2023-07-31T05:09:32;17.20;94.00
14733;DHT22;7457;50.960;6.830;2023-07-31T05:11:58;17.20;93.80
14733;DHT22;7457;50.960;6.830;2023-07-31T05:14:23;17.30;93.60
14733;DHT22;7457;50.960;6.830;2023-07-31T05:16:49;17.30;93.40
14733;DHT22;7457;50.960;6.830;2023-07-31T05:19:15;17.40;93.30
14733;DHT22;7457;50.960;6.830;2023-07-31T05:21:40;17.40;93.20
14733;DHT22;7457;50.960;6.830;2023-07-31T05:24:06;17.50;93.00
14733;DHT22;7457;50.960;6.830;2023-07-31T05:26:32;17.50;92.60
14733;DHT22;7457;50.960;6.830;2023-07-31T05:28:57;17.50;92.20
14733;DHT22;7457;50.960;6.830;2023-07-31T05:31:23;17.60;91.80
14733;DHT22;7457;50.960;6.830;2023-07-31T05:33:50;17.60;91.50
14733;DHT22;7457;50.960;6.830;2023-07-31T05:36:16;17.60;91.50
14733;DHT22;7457;50.960;6.830;2023-07-31T05:38:42;17.60;91.30
14733;DHT22;7457;50.960;6.830;2023-07-31T05:41:11;17.60;91.20
14733;DHT22;7457;50.960;6.830;2023-07-31T05:43:36;17.60;91.00
14733;DHT22;7457;50.960;6.830;2023-07-31T05:46:02;17.60;90.90
14733;DHT22;7457;50.960;6.830;2023-07-31T05:48:28;17.60;90.70
14733;DHT22;7457;50.960;6.830;2023-07-31T05:50:53;17.50;90.40
14733;DHT22;7457;50.960;6.830;2023-07-31T05:53:19;17.50;90.40
14733;DHT22;7457;50.960;6.830;2023-07-31T05:55:45;17.50;90.40
14733;DHT22;7457;50.960;6.830;2023-07-31T05:58:10;17.50;90.30
14733;DHT22;7457;50.960;6.830;2023-07-31T06:00:36;17.50;90.30
14733;DHT22;7457;50.960;6.830;2023-07-31T06:03:02;17.50;90.30
14733;DHT22;7457;50.960;6.830;2023-07-31T06:05:27;17.50;90.50
14733;DHT22;7457;50.960;6.830;2023-07-31T06:07:55;17.50;90.50
14733;DHT22;7457;50.960;6.830;2023-07-31T06:10:21;17.50;90.50
14733;DHT22;7457;50.960;6.830;2023-07-31T06:12:47;17.40;90.60
14733;DHT22;7457;50.960;6.830;2023-07-31T06:15:13;17.30;91.00
14733;DHT22;7457;50.960;6.830;2023-07-31T06:17:38;17.30;91.30
14733;DHT22;7457;50.960;6.830;2023-07-31T06:20:05;17.20;91.80
14733;DHT22;7457;50.960;6.830;2023-07-31T06:22:31;17.20;92.30
14733;DHT22;7457;50.960;6.830;2023-07-31T06:24:57;17.20;92.80
14733;DHT22;7457;50.960;6.830;2023-07-31T06:27:23;17.20;93.00
14733;DHT22;7457;50.960;6.830;2023-07-31T06:29:49;17.20;93.20
14733;DHT22;7457;50.960;6.830;2023-07-31T06:32:14;17.20;93.30
14733;DHT22;7457;50.960;6.830;2023-07-31T06:34:40;17.20;93.40
14733;DHT22;7457;50.960;6.830;2023-07-31T06:37:06;17.20;93.70
14733;DHT22;7457;50.960;6.830;2023-07-31T06:39:31;17.20;93.80
14733;DHT22;7457;50.960;6.830;2023-07-31T06:41:57;17.20;94.10
14733;DHT22;7457;50.960;6.830;2023-07-31T06:44:23;17.30;94.40
14733;DHT22;7457;50.960;6.830;2023-07-31T06:46:48;17.30;94.60
14733;DHT22;7457;50.960;6.830;2023-07-31T06:49:14;17.40;94.90
14733;DHT22;7457;50.960;6.830;2023-07-31T06:51:42;17.50;95.00
14733;DHT22;7457;50.960;6.830;2023-07-31T06:54:09;17.60;94.80
14733;DHT22;7457;50.960;6.830;2023-07-31T06:56:35;17.70;94.50
14733;DHT22;7457;50.960;6.830;2023-07-31T06:59:00;17.80;94.10
14733;DHT22;7457;50.960;6.830;2023-07-31T07:01:26;17.90;93.90
14733;DHT22;7457;50.960;6.830;2023-07-31T07:03:53;17.90;93.40
14733;DHT22;7457;50.960;6.830;2023-07-31T07:06:18;18.00;93.20
14733;DHT22;7457;50.960;6.830;2023-07-31T07:08:44;18.00;93.10
14733;DHT22;7457;50.960;6.830;2023-07-31T07:11:10;18.00;92.70
14733;DHT22;7457;50.960;6.830;2023-07-31T07:13:36;18.10;92.70
14733;DHT22;7457;50.960;6.830;2023-07-31T07:16:02;18.10;92.60
14733;DHT22;7457;50.960;6.830;2023-07-31T07:18:28;18.10;92.60
14733;DHT22;7457;50.960;6.830;2023-07-31T07:20:54;18.10;92.50
14733;DHT22;7457;50.960;6.830;2023-07-31T07:23:20;18.10;92.10
14733;DHT22;7457;50.960;6.830;2023-07-31T07:25:46;18.20;91.80
14733;DHT22;7457;50.960;6.830;2023-07-31T07:28:13;18.10;91.70
14733;DHT22;7457;50.960;6.830;2023-07-31T07:30:39;18.10;91.80
14733;DHT22;7457;50.960;6.830;2023-07-31T07:33:05;18.10;92.00
14733;DHT22;7457;50.960;6.830;2023-07-31T07:35:35;18.00;92.00
14733;DHT22;7457;50.960;6.830;2023-07-31T07:38:02;17.90;92.10
14733;DHT22;7457;50.960;6.830;2023-07-31T07:40:27;17.80;92.40
14733;DHT22;7457;50.960;6.830;2023-07-31T07:42:53;17.80;92.70
14733;DHT22;7457;50.960;6.830;2023-07-31T07:45:18;17.70;93.10
14733;DHT22;7457;50.960;6.830;2023-07-31T07:47:44;17.70;93.00
14733;DHT22;7457;50.960;6.830;2023-07-31T07:50:10;17.70;92.90
14733;DHT22;7457;50.960;6.830;2023-07-31T07:52:35;17.70;92.80
14733;DHT22;7457;50.960;6.830;2023-07-31T07:55:01;17.60;93.00
14733;DHT22;7457;50.960;6.830;2023-07-31T07:57:27;17.50;93.10
14733;DHT22;7457;50.960;6.830;2023-07-31T07:59:53;17.40;93.30
14733;DHT22;7457;50.960;6.830;2023-07-31T08:02:18;17.30;93.60
14733;DHT22;7457;50.960;6.830;2023-07-31T08:04:44;17.30;94.00
14733;DHT22;7457;50.960;6.830;2023-07-31T08:07:13;17.20;94.70
14733;DHT22;7457;50.960;6.830;2023-07-31T08:09:39;17.20;95.00
14733;DHT22;7457;50.960;6.830;2023-07-31T08:12:05;17.20;95.20
14733;DHT22;7457;50.960;6.830;2023-07-31T08:14:31;17.30;95.00
14733;DHT22;7457;50.960;6.830;2023-07-31T08:16:57;17.30;94.90
14733;DHT22;7457;50.960;6.830;2023-07-31T08:19:22;17.30;94.80
14733;DHT22;7457;50.960;6.830;2023-07-31T08:21:48;17.30;94.70
14733;DHT22;7457;50.960;6.830;2023-07-31T08:24:14;17.30;94.60
14733;DHT22;7457;50.960;6.830;2023-07-31T08:26:39;17.40;94.70
14733;DHT22;7457;50.960;6.830;2023-07-31T08:29:05;17.40;94.80
14733;DHT22;7457;50.960;6.830;2023-07-31T08:31:31;17.50;94.90
14733;DHT22;7457;50.960;6.830;2023-07-31T08:33:57;17.50;94.70
14733;DHT22;7457;50.960;6.830;2023-07-31T08:36:22;17.60;94.40
14733;DHT22;7457;50.960;6.830;2023-07-31T08:38:48;17.60;94.10
14733;DHT22;7457;50.960;6.830;2023-07-31T08:41:15;17.70;93.80
14733;DHT22;7457;50.960;6.830;2023-07-31T08:43:44;17.70;93.70
14733;DHT22;7457;50.960;6.830;2023-07-31T08:46:10;17.70;93.80
14733;DHT22;7457;50.960;6.830;2023-07-31T08:48:37;17.80;94.00
14733;DHT22;7457;50.960;6.830;2023-07-31T08:51:04;17.80;94.00
14733;DHT22;7457;50.960;6.830;2023-07-31T08:53:29;17.90;94.10
14733;DHT22;7457;50.960;6.830;2023-07-31T08:55:56;18.00;94.30
14733;DHT22;7457;50.960;6.830;2023-07-31T08:58:24;18.10;94.00
14733;DHT22;7457;50.960;6.830;2023-07-31T09:00:51;18.20;93.80
14733;DHT22;7457;50.960;6.830;2023-07-31T09:03:18;18.30;93.80
14733;DHT22;7457;50.960;6.830;2023-07-31T09:05:46;18.50;93.30
14733;DHT22;7457;50.960;6.830;2023-07-31T09:08:13;18.50;92.50
14733;DHT22;7457;50.960;6.830;2023-07-31T09:10:43;18.50;91.80
14733;DHT22;7457;50.960;6.830;2023-07-31T09:13:09;18.40;92.40
14733;DHT22;7457;50.960;6.830;2023-07-31T09:15:36;18.40;92.20
14733;DHT22;7457;50.960;6.830;2023-07-31T09:18:03;18.40;91.20
14733;DHT22;7457;50.960;6.830;2023-07-31T09:20:31;18.30;91.50
14733;DHT22;7457;50.960;6.830;2023-07-31T09:23:06;18.20;92.30
14733;DHT22;7457;50.960;6.830;2023-07-31T09:25:32;18.30;92.50
14733;DHT22;7457;50.960;6.830;2023-07-31T09:28:00;18.40;92.50
14733;DHT22;7457;50.960;6.830;2023-07-31T09:30:26;18.60;92.30
14733;DHT22;7457;50.960;6.830;2023-07-31T09:33:01;18.80;92.20
14733;DHT22;7457;50.960;6.830;2023-07-31T09:35:32;18.90;91.10
14733;DHT22;7457;50.960;6.830;2023-07-31T09:38:05;19.00;90.70
14733;DHT22;7457;50.960;6.830;2023-07-31T09:40:33;19.20;90.50
14733;DHT22;7457;50.960;6.830;2023-07-31T09:45:26;19.70;89.30
14733;DHT22;7457;50.960;6.830;2023-07-31T09:47:52;19.90;88.70
14733;DHT22;7457;50.960;6.830;2023-07-31T09:50:19;20.00;87.80
14733;DHT22;7457;50.960;6.830;2023-07-31T09:52:45;20.10;86.90
14733;DHT22;7457;50.960;6.830;2023-07-31T09:55:11;20.10;86.70
14733;DHT22;7457;50.960;6.830;2023-07-31T09:57:40;20.20;86.50
14733;DHT22;7457;50.960;6.830;2023-07-31T10:00:07;20.20;85.80
14733;DHT22;7457;50.960;6.830;2023-07-31T10:02:36;20.30;85.00
14733;DHT22;7457;50.960;6.830;2023-07-31T10:05:03;20.20;84.40
14733;DHT22;7457;50.960;6.830;2023-07-31T10:07:31;20.20;84.40
14733;DHT22;7457;50.960;6.830;2023-07-31T10:10:00;20.20;84.40
14733;DHT22;7457;50.960;6.830;2023-07-31T10:12:26;20.10;83.80
14733;DHT22;7457;50.960;6.830;2023-07-31T10:14:55;20.10;83.40
14733;DHT22;7457;50.960;6.830;2023-07-31T10:17:25;20.10;83.80
14733;DHT22;7457;50.960;6.830;2023-07-31T10:19:51;20.10;84.30
14733;DHT22;7457;50.960;6.830;2023-07-31T10:22:19;20.10;84.00
14733;DHT22;7457;50.960;6.830;2023-07-31T10:24:46;20.10;83.90
14733;DHT22;7457;50.960;6.830;2023-07-31T10:27:12;20.20;84.80
14733;DHT22;7457;50.960;6.830;2023-07-31T10:29:39;20.20;84.40
14733;DHT22;7457;50.960;6.830;2023-07-31T10:32:06;20.30;83.10
14733;DHT22;7457;50.960;6.830;2023-07-31T10:34:35;20.20;82.60
14733;DHT22;7457;50.960;6.830;2023-07-31T10:40:25;20.00;82.70
14733;DHT22;7457;50.960;6.830;2023-07-31T10:42:55;19.90;83.00
14733;DHT22;7457;50.960;6.830;2023-07-31T10:45:42;19.90;83.50
14733;DHT22;7457;50.960;6.830;2023-07-31T10:48:15;19.80;83.80
14733;DHT22;7457;50.960;6.830;2023-07-31T10:50:52;19.80;84.00
14733;DHT22;7457;50.960;6.830;2023-07-31T10:53:30;19.90;84.10
14733;DHT22;7457;50.960;6.830;2023-07-31T10:56:09;20.00;84.50
14733;DHT22;7457;50.960;6.830;2023-07-31T10:58:36;20.00;84.90
14733;DHT22;7457;50.960;6.830;2023-07-31T11:01:04;19.90;85.60
14733;DHT22;7457;50.960;6.830;2023-07-31T11:03:50;19.70;85.80
14733;DHT22;7457;50.960;6.830;2023-07-31T11:06:19;19.50;87.10
14733;DHT22;7457;50.960;6.830;2023-07-31T11:08:47;19.40;87.90
14733;DHT22;7457;50.960;6.830;2023-07-31T11:11:15;19.40;88.60
14733;DHT22;7457;50.960;6.830;2023-07-31T11:16:11;19.70;89.20
14733;DHT22;7457;50.960;6.830;2023-07-31T11:18:42;20.10;88.50
14733;DHT22;7457;50.960;6.830;2023-07-31T11:21:19;20.40;87.60
14733;DHT22;7457;50.960;6.830;2023-07-31T11:23:50;20.70;87.10
14733;DHT22;7457;50.960;6.830;2023-07-31T11:26:17;20.90;86.00
14733;DHT22;7457;50.960;6.830;2023-07-31T11:28:43;21.10;84.40
14733;DHT22;7457;50.960;6.830;2023-07-31T11:31:11;21.30;83.90
14733;DHT22;7457;50.960;6.830;2023-07-31T11:33:37;21.60;83.60
14733;DHT22;7457;50.960;6.830;2023-07-31T11:36:03;21.90;83.20
14733;DHT22;7457;50.960;6.830;2023-07-31T11:38:31;22.10;81.90
14733;DHT22;7457;50.960;6.830;2023-07-31T11:41:00;22.30;81.00
14733;DHT22;7457;50.960;6.830;2023-07-31T11:43:26;22.60;80.60
14733;DHT22;7457;50.960;6.830;2023-07-31T11:45:56;22.80;78.00
14733;DHT22;7457;50.960;6.830;2023-07-31T11:50:50;23.10;78.50
14733;DHT22;7457;50.960;6.830;2023-07-31T11:53:19;23.20;76.20
14733;DHT22;7457;50.960;6.830;2023-07-31T11:55:46;23.10;75.50
14733;DHT22;7457;50.960;6.830;2023-07-31T11:58:14;22.90;75.70
14733;DHT22;7457;50.960;6.830;2023-07-31T12:00:41;22.50;75.10
14733;DHT22;7457;50.960;6.830;2023-07-31T12:03:06;22.20;75.60
14733;DHT22;7457;50.960;6.830;2023-07-31T12:05:32;21.70;76.70
14733;DHT22;7457;50.960;6.830;2023-07-31T12:07:58;21.40;77.30
14733;DHT22;7457;50.960;6.830;2023-07-31T12:10:31;21.10;78.20
14733;DHT22;7457;50.960;6.830;2023-07-31T12:13:08;20.90;78.80
14733;DHT22;7457;50.960;6.830;2023-07-31T12:15:45;20.70;80.00
14733;DHT22;7457;50.960;6.830;2023-07-31T12:18:13;20.70;80.80
14733;DHT22;7457;50.960;6.830;2023-07-31T12:20:43;20.70;81.10
14733;DHT22;7457;50.960;6.830;2023-07-31T12:23:17;20.70;81.20
14733;DHT22;7457;50.960;6.830;2023-07-31T12:25:43;20.70;80.90
14733;DHT22;7457;50.960;6.830;2023-07-31T12:28:09;20.60;80.50
14733;DHT22;7457;50.960;6.830;2023-07-31T12:30:40;20.50;80.90
14733;DHT22;7457;50.960;6.830;2023-07-31T12:33:12;20.40;81.60
14733;DHT22;7457;50.960;6.830;2023-07-31T12:35:40;20.40;81.90
14733;DHT22;7457;50.960;6.830;2023-07-31T12:38:06;20.50;82.00
14733;DHT22;7457;50.960;6.830;2023-07-31T12:40:32;20.50;81.70
14733;DHT22;7457;50.960;6.830;2023-07-31T12:43:01;20.50;81.90
14733;DHT22;7457;50.960;6.830;2023-07-31T12:45:27;20.60;82.30
14733;DHT22;7457;50.960;6.830;2023-07-31T12:47:53;20.70;81.90
14733;DHT22;7457;50.960;6.830;2023-07-31T12:50:19;20.70;81.90
14733;DHT22;7457;50.960;6.830;2023-07-31T12:52:44;20.60;81.50
14733;DHT22;7457;50.960;6.830;2023-07-31T12:55:10;20.60;82.10
14733;DHT22;7457;50.960;6.830;2023-07-31T12:57:37;20.70;82.30
14733;DHT22;7457;50.960;6.830;2023-07-31T13:00:03;20.70;82.50
14733;DHT22;7457;50.960;6.830;2023-07-31T13:02:29;20.90;82.50
14733;DHT22;7457;50.960;6.830;2023-07-31T13:04:54;21.00;81.60
14733;DHT22;7457;50.960;6.830;2023-07-31T13:07:22;21.10;80.80
14733;DHT22;7457;50.960;6.830;2023-07-31T13:09:48;21.10;80.30
14733;DHT22;7457;50.960;6.830;2023-07-31T13:12:14;21.10;80.10
14733;DHT22;7457;50.960;6.830;2023-07-31T13:14:39;21.10;79.90
14733;DHT22;7457;50.960;6.830;2023-07-31T13:17:05;21.10;79.80
14733;DHT22;7457;50.960;6.830;2023-07-31T13:19:31;21.10;79.80
14733;DHT22;7457;50.960;6.830;2023-07-31T13:21:57;21.10;79.70
14733;DHT22;7457;50.960;6.830;2023-07-31T13:24:22;21.00;79.90
14733;DHT22;7457;50.960;6.830;2023-07-31T13:26:48;21.10;80.10
14733;DHT22;7457;50.960;6.830;2023-07-31T13:29:14;21.10;80.40
14733;DHT22;7457;50.960;6.830;2023-07-31T13:31:39;21.20;80.30
14733;DHT22;7457;50.960;6.830;2023-07-31T13:34:05;21.30;80.10
14733;DHT22;7457;50.960;6.830;2023-07-31T13:36:30;21.40;79.90
14733;DHT22;7457;50.960;6.830;2023-07-31T13:38:56;21.50;79.50
14733;DHT22;7457;50.960;6.830;2023-07-31T13:41:22;21.50;79.40
14733;DHT22;7457;50.960;6.830;2023-07-31T13:43:47;21.60;79.30
14733;DHT22;7457;50.960;6.830;2023-07-31T13:46:13;21.60;79.00
14733;DHT22;7457;50.960;6.830;2023-07-31T13:48:38;21.70;79.00
14733;DHT22;7457;50.960;6.830;2023-07-31T13:51:04;21.90;79.10
14733;DHT22;7457;50.960;6.830;2023-07-31T13:53:30;22.10;78.80
14733;DHT22;7457;50.960;6.830;2023-07-31T13:55:56;22.40;79.00
14733;DHT22;7457;50.960;6.830;2023-07-31T13:58:22;22.80;78.20
14733;DHT22;7457;50.960;6.830;2023-07-31T14:00:47;23.20;76.10
14733;DHT22;7457;50.960;6.830;2023-07-31T14:03:13;23.50;75.40
14733;DHT22;7457;50.960;6.830;2023-07-31T14:05:39;23.70;73.70
14733;DHT22;7457;50.960;6.830;2023-07-31T14:08:04;23.80;72.80
14733;DHT22;7457;50.960;6.830;2023-07-31T14:10:30;23.70;70.90
14733;DHT22;7457;50.960;6.830;2023-07-31T14:12:55;23.40;70.10
14733;DHT22;7457;50.960;6.830;2023-07-31T14:15:21;22.90;69.80
14733;DHT22;7457;50.960;6.830;2023-07-31T14:17:47;150.00;100.00
14733;DHT22;7457;50.960;6.830;2023-07-31T14:20:12;22.20;71.40
14733;DHT22;7457;50.960;6.830;2023-07-31T14:22:38;21.90;71.80
14733;DHT22;7457;50.960;6.830;2023-07-31T14:25:04;21.60;72.40
14733;DHT22;7457;50.960;6.830;2023-07-31T14:27:30;21.40;72.60
14733;DHT22;7457;50.960;6.830;2023-07-31T14:29:56;21.20;73.30
14733;DHT22;7457;50.960;6.830;2023-07-31T14:32:24;21.00;74.10
14733;DHT22;7457;50.960;6.830;2023-07-31T14:34:51;20.90;74.60
14733;DHT22;7457;50.960;6.830;2023-07-31T14:37:16;20.80;75.50
14733;DHT22;7457;50.960;6.830;2023-07-31T14:39:42;20.70;77.00
14733;DHT22;7457;50.960;6.830;2023-07-31T14:42:09;20.70;78.10
14733;DHT22;7457;50.960;6.830;2023-07-31T14:44:34;20.90;77.90
14733;DHT22;7457;50.960;6.830;2023-07-31T14:47:00;21.00;77.90
14733;DHT22;7457;50.960;6.830;2023-07-31T14:49:26;21.00;77.40
14733;DHT22;7457;50.960;6.830;2023-07-31T14:51:53;21.10;77.40
14733;DHT22;7457;50.960;6.830;2023-07-31T14:54:19;21.10;77.30
14733;DHT22;7457;50.960;6.830;2023-07-31T14:56:45;21.00;77.20
14733;DHT22;7457;50.960;6.830;2023-07-31T14:59:10;21.00;76.80
14733;DHT22;7457;50.960;6.830;2023-07-31T15:01:37;20.90;76.50
14733;DHT22;7457;50.960;6.830;2023-07-31T15:04:03;20.90;76.30
14733;DHT22;7457;50.960;6.830;2023-07-31T15:06:29;20.80;76.20
14733;DHT22;7457;50.960;6.830;2023-07-31T15:08:54;20.80;76.30
14733;DHT22;7457;50.960;6.830;2023-07-31T15:11:20;20.70;76.30
14733;DHT22;7457;50.960;6.830;2023-07-31T15:13:46;20.60;76.80
14733;DHT22;7457;50.960;6.830;2023-07-31T15:16:11;20.60;77.20
14733;DHT22;7457;50.960;6.830;2023-07-31T15:18:37;20.60;77.40
14733;DHT22;7457;50.960;6.830;2023-07-31T15:21:02;20.60;77.10
14733;DHT22;7457;50.960;6.830;2023-07-31T15:23:29;20.60;77.00
14733;DHT22;7457;50.960;6.830;2023-07-31T15:25:55;20.50;76.80
14733;DHT22;7457;50.960;6.830;2023-07-31T15:28:21;20.50;76.60
14733;DHT22;7457;50.960;6.830;2023-07-31T15:30:46;20.40;77.00
14733;DHT22;7457;50.960;6.830;2023-07-31T15:33:12;20.40;77.10
14733;DHT22;7457;50.960;6.830;2023-07-31T15:35:38;20.30;77.00
14733;DHT22;7457;50.960;6.830;2023-07-31T15:38:03;20.30;76.90
14733;DHT22;7457;50.960;6.830;2023-07-31T15:40:29;20.30;77.20
14733;DHT22;7457;50.960;6.830;2023-07-31T15:42:55;20.30;77.40
14733;DHT22;7457;50.960;6.830;2023-07-31T15:45:20;20.30;77.30
14733;DHT22;7457;50.960;6.830;2023-07-31T15:47:46;20.20;77.30
14733;DHT22;7457;50.960;6.830;2023-07-31T15:50:13;20.20;77.50
14733;DHT22;7457;50.960;6.830;2023-07-31T16:02:23;19.20;83.10
14733;DHT22;7457;50.960;6.830;2023-07-31T16:04:48;19.00;83.70
14733;DHT22;7457;50.960;6.830;2023-07-31T16:07:14;18.90;84.40
14733;DHT22;7457;50.960;6.830;2023-07-31T16:09:39;18.70;84.80